sensor_id;sensor_type;location;lat;lon;timestamp;pressure;altitude;pressure_sealevel;temperature;humidity
55687;BME280;41911;52.362;4.978;2023-03-03T00:01:31;102612.13;;;2.23;48.60
55687;BME280;41911;52.362;4.978;2023-03-03T00:02:02;102612.15;;;2.98;48.44
55687;BME280;41911;52.362;4.978;2023-03-03T00:02:33;102609.68;;;2.59;48.23
55687;BME280;41911;52.362;4.978;2023-03-03T00:03:06;102608.63;;;3.10;48.26
55687;BME280;41911;52.362;4.978;2023-03-03T00:03:38;102610.42;;;2.89;48.18
55687;BME280;41911;52.362;4.978;2023-03-03T00:04:09;102611.49;;;2.81;48.58
55687;BME280;41911;52.362;4.978;2023-03-03T00:04:40;102611.37;;;2.93;48.52
55687;BME280;41911;52.362;4.978;2023-03-03T00:05:13;102611.23;;;2.82;48.45
55687;BME280;41911;52.362;4.978;2023-03-03T00:05:44;102612.45;;;2.70;48.71
55687;BME280;41911;52.362;4.978;2023-03-03T00:06:15;102612.68;;;2.59;48.86
55687;BME280;41911;52.362;4.978;2023-03-03T00:06:46;102611.93;;;2.63;48.98
55687;BME280;41911;52.362;4.978;2023-03-03T00:07:17;102612.35;;;1.91;49.11
55687;BME280;41911;52.362;4.978;2023-03-03T00:07:48;102610.57;;;2.76;48.87
55687;BME280;41911;52.362;4.978;2023-03-03T00:08:20;102607.54;;;2.72;48.92
55687;BME280;41911;52.362;4.978;2023-03-03T00:08:51;102612.93;;;2.58;48.99
55687;BME280;41911;52.362;4.978;2023-03-03T00:09:22;102615.10;;;2.75;49.16
55687;BME280;41911;52.362;4.978;2023-03-03T00:09:53;102617.34;;;2.78;49.15
55687;BME280;41911;52.362;4.978;2023-03-03T00:10:24;102617.77;;;2.79;48.89
55687;BME280;41911;52.362;4.978;2023-03-03T00:10:55;102618.44;;;2.54;49.03
55687;BME280;41911;52.362;4.978;2023-03-03T00:11:26;102620.21;;;2.47;49.05
55687;BME280;41911;52.362;4.978;2023-03-03T00:11:59;102620.76;;;2.51;48.97
55687;BME280;41911;52.362;4.978;2023-03-03T00:12:34;102617.73;;;2.85;48.85
55687;BME280;41911;52.362;4.978;2023-03-03T00:13:12;102621.22;;;2.81;48.99
55687;BME280;41911;52.362;4.978;2023-03-03T00:13:46;102621.76;;;2.74;48.98
55687;BME280;41911;52.362;4.978;2023-03-03T00:14:24;102619.98;;;2.81;48.88
55687;BME280;41911;52.362;4.978;2023-03-03T00:14:58;102623.38;;;2.45;48.88
55687;BME280;41911;52.362;4.978;2023-03-03T00:15:30;102620.69;;;2.41;49.00
55687;BME280;41911;52.362;4.978;2023-03-03T00:16:13;102621.03;;;2.42;49.21
55687;BME280;41911;52.362;4.978;2023-03-03T00:16:44;102617.93;;;1.86;50.00
55687;BME280;41911;52.362;4.978;2023-03-03T00:17:20;102617.95;;;1.74;50.04
55687;BME280;41911;52.362;4.978;2023-03-03T00:17:53;102615.80;;;2.55;49.73
55687;BME280;41911;52.362;4.978;2023-03-03T00:18:29;102612.70;;;2.01;49.66
55687;BME280;41911;52.362;4.978;2023-03-03T00:19:01;102612.60;;;2.33;49.62
55687;BME280;41911;52.362;4.978;2023-03-03T00:19:37;102611.27;;;2.14;50.21
55687;BME280;41911;52.362;4.978;2023-03-03T00:20:49;102613.78;;;2.17;50.06
55687;BME280;41911;52.362;4.978;2023-03-03T00:21:25;102614.53;;;2.28;49.90
55687;BME280;41911;52.362;4.978;2023-03-03T00:21:57;102615.71;;;2.16;50.04
55687;BME280;41911;52.362;4.978;2023-03-03T00:22:29;102614.24;;;1.99;49.88
55687;BME280;41911;52.362;4.978;2023-03-03T00:23:14;102615.47;;;2.58;49.90
55687;BME280;41911;52.362;4.978;2023-03-03T00:23:48;102615.75;;;2.54;49.95
55687;BME280;41911;52.362;4.978;2023-03-03T00:24:21;102618.08;;;2.23;49.98
55687;BME280;41911;52.362;4.978;2023-03-03T00:24:52;102616.74;;;2.21;50.04
55687;BME280;41911;52.362;4.978;2023-03-03T00:25:28;102616.98;;;2.07;49.88
55687;BME280;41911;52.362;4.978;2023-03-03T00:26:00;102614.82;;;2.09;50.08
55687;BME280;41911;52.362;4.978;2023-03-03T00:26:35;102618.05;;;2.47;49.80
55687;BME280;41911;52.362;4.978;2023-03-03T00:27:17;102615.71;;;2.08;49.78
55687;BME280;41911;52.362;4.978;2023-03-03T00:27:52;102617.62;;;2.53;49.70
55687;BME280;41911;52.362;4.978;2023-03-03T00:28:26;102617.19;;;2.24;49.77
55687;BME280;41911;52.362;4.978;2023-03-03T00:28:57;102616.67;;;2.73;49.65
55687;BME280;41911;52.362;4.978;2023-03-03T00:29:32;102615.87;;;2.42;49.53
55687;BME280;41911;52.362;4.978;2023-03-03T00:30:19;102618.09;;;2.34;49.51
55687;BME280;41911;52.362;4.978;2023-03-03T00:30:54;102618.69;;;2.63;49.43
55687;BME280;41911;52.362;4.978;2023-03-03T00:31:30;102618.78;;;2.26;49.49
55687;BME280;41911;52.362;4.978;2023-03-03T00:32:29;102617.83;;;2.35;49.41
55687;BME280;41911;52.362;4.978;2023-03-03T00:33:01;102621.42;;;2.44;49.32
55687;BME280;41911;52.362;4.978;2023-03-03T00:33:44;102618.34;;;2.41;49.47
55687;BME280;41911;52.362;4.978;2023-03-03T00:34:24;102617.30;;;2.11;49.89
55687;BME280;41911;52.362;4.978;2023-03-03T00:35:01;102617.07;;;2.54;49.71
55687;BME280;41911;52.362;4.978;2023-03-03T00:35:33;102617.23;;;2.78;49.72
55687;BME280;41911;52.362;4.978;2023-03-03T00:36:21;102618.75;;;2.54;49.58
55687;BME280;41911;52.362;4.978;2023-03-03T00:36:56;102618.23;;;1.99;50.18
55687;BME280;41911;52.362;4.978;2023-03-03T00:37:30;102620.21;;;2.30;49.85
55687;BME280;41911;52.362;4.978;2023-03-03T00:38:10;102622.41;;;2.23;49.94
55687;BME280;41911;52.362;4.978;2023-03-03T00:38:42;102622.21;;;2.30;49.97
55687;BME280;41911;52.362;4.978;2023-03-03T00:39:21;102622.54;;;2.64;49.84
55687;BME280;41911;52.362;4.978;2023-03-03T00:40:10;102623.24;;;2.40;49.73
55687;BME280;41911;52.362;4.978;2023-03-03T00:40:43;102624.40;;;2.42;49.58
55687;BME280;41911;52.362;4.978;2023-03-03T00:41:19;102626.40;;;2.69;49.63
55687;BME280;41911;52.362;4.978;2023-03-03T00:41:52;102622.97;;;2.42;49.70
55687;BME280;41911;52.362;4.978;2023-03-03T00:42:25;102627.40;;;2.41;49.68
55687;BME280;41911;52.362;4.978;2023-03-03T00:42:58;102628.48;;;2.73;49.62
55687;BME280;41911;52.362;4.978;2023-03-03T00:43:34;102628.74;;;2.87;49.43
55687;BME280;41911;52.362;4.978;2023-03-03T00:44:32;102629.34;;;2.52;49.26
55687;BME280;41911;52.362;4.978;2023-03-03T00:45:24;102629.84;;;2.46;49.34
55687;BME280;41911;52.362;4.978;2023-03-03T00:45:56;102628.38;;;2.44;49.43
55687;BME280;41911;52.362;4.978;2023-03-03T00:46:29;102630.18;;;2.82;49.31
55687;BME280;41911;52.362;4.978;2023-03-03T00:47:20;102628.95;;;2.68;49.08
55687;BME280;41911;52.362;4.978;2023-03-03T00:47:53;102630.87;;;2.68;48.99
55687;BME280;41911;52.362;4.978;2023-03-03T00:48:26;102628.92;;;2.73;48.81
55687;BME280;41911;52.362;4.978;2023-03-03T00:48:58;102627.28;;;2.96;48.92
55687;BME280;41911;52.362;4.978;2023-03-03T00:49:29;102626.75;;;2.49;49.13
55687;BME280;41911;52.362;4.978;2023-03-03T00:50:33;102627.54;;;2.67;48.94
55687;BME280;41911;52.362;4.978;2023-03-03T00:51:26;102628.02;;;2.69;48.90
55687;BME280;41911;52.362;4.978;2023-03-03T00:51:57;102627.82;;;2.56;49.03
55687;BME280;41911;52.362;4.978;2023-03-03T00:52:28;102628.47;;;2.57;48.90
55687;BME280;41911;52.362;4.978;2023-03-03T00:53:02;102627.88;;;2.61;48.87
55687;BME280;41911;52.362;4.978;2023-03-03T00:53:33;102627.63;;;2.70;48.64
55687;BME280;41911;52.362;4.978;2023-03-03T00:54:04;102625.90;;;2.62;48.76
55687;BME280;41911;52.362;4.978;2023-03-03T00:54:35;102628.91;;;2.63;48.75
55687;BME280;41911;52.362;4.978;2023-03-03T00:55:07;102628.60;;;2.53;48.82
55687;BME280;41911;52.362;4.978;2023-03-03T00:55:39;102628.77;;;2.61;48.75
55687;BME280;41911;52.362;4.978;2023-03-03T00:56:10;102628.20;;;2.71;48.62
55687;BME280;41911;52.362;4.978;2023-03-03T00:56:41;102628.67;;;2.64;48.74
55687;BME280;41911;52.362;4.978;2023-03-03T00:57:12;102628.10;;;2.62;48.83
55687;BME280;41911;52.362;4.978;2023-03-03T00:57:43;102631.18;;;2.82;48.85
55687;BME280;41911;52.362;4.978;2023-03-03T00:58:15;102631.27;;;2.52;48.83
55687;BME280;41911;52.362;4.978;2023-03-03T00:58:46;102630.86;;;2.69;48.92
55687;BME280;41911;52.362;4.978;2023-03-03T00:59:17;102631.77;;;2.82;48.84
55687;BME280;41911;52.362;4.978;2023-03-03T00:59:48;102633.07;;;2.48;48.81
55687;BME280;41911;52.362;4.978;2023-03-03T01:00:19;102632.78;;;2.42;48.82
55687;BME280;41911;52.362;4.978;2023-03-03T01:00:52;102633.63;;;2.46;48.79
55687;BME280;41911;52.362;4.978;2023-03-03T01:01:23;102634.04;;;2.61;48.69
55687;BME280;41911;52.362;4.978;2023-03-03T01:01:54;102632.08;;;1.97;49.36
55687;BME280;41911;52.362;4.978;2023-03-03T01:02:25;102633.03;;;2.93;48.95
55687;BME280;41911;52.362;4.978;2023-03-03T01:03:01;102634.72;;;2.19;49.12
55687;BME280;41911;52.362;4.978;2023-03-03T01:03:32;102635.50;;;2.61;48.97
55687;BME280;41911;52.362;4.978;2023-03-03T01:04:04;102636.01;;;2.25;49.02
55687;BME280;41911;52.362;4.978;2023-03-03T01:04:35;102633.15;;;2.88;48.94
55687;BME280;41911;52.362;4.978;2023-03-03T01:05:09;102634.70;;;2.24;48.91
55687;BME280;41911;52.362;4.978;2023-03-03T01:05:43;102634.39;;;2.53;48.89
55687;BME280;41911;52.362;4.978;2023-03-03T01:06:14;102633.74;;;2.58;48.94
55687;BME280;41911;52.362;4.978;2023-03-03T01:06:45;102633.20;;;2.22;48.91
55687;BME280;41911;52.362;4.978;2023-03-03T01:07:17;102633.41;;;2.57;48.79
55687;BME280;41911;52.362;4.978;2023-03-03T01:07:48;102634.46;;;2.76;48.74
55687;BME280;41911;52.362;4.978;2023-03-03T01:08:21;102636.35;;;2.59;48.79
55687;BME280;41911;52.362;4.978;2023-03-03T01:08:52;102636.00;;;2.50;48.54
55687;BME280;41911;52.362;4.978;2023-03-03T01:09:23;102635.88;;;2.37;48.56
55687;BME280;41911;52.362;4.978;2023-03-03T01:09:54;102635.14;;;2.39;48.56
55687;BME280;41911;52.362;4.978;2023-03-03T01:10:26;102634.83;;;2.34;48.58
55687;BME280;41911;52.362;4.978;2023-03-03T01:11:02;102636.28;;;2.38;48.61
55687;BME280;41911;52.362;4.978;2023-03-03T01:11:35;102634.54;;;2.26;48.77
55687;BME280;41911;52.362;4.978;2023-03-03T01:12:06;102632.13;;;2.30;48.79
55687;BME280;41911;52.362;4.978;2023-03-03T01:12:37;102631.61;;;2.32;48.70
55687;BME280;41911;52.362;4.978;2023-03-03T01:13:09;102635.70;;;2.20;48.77
55687;BME280;41911;52.362;4.978;2023-03-03T01:13:42;102636.69;;;2.44;48.83
55687;BME280;41911;52.362;4.978;2023-03-03T01:14:19;102635.35;;;2.47;48.83
55687;BME280;41911;52.362;4.978;2023-03-03T01:14:51;102637.00;;;2.13;48.83
55687;BME280;41911;52.362;4.978;2023-03-03T01:15:22;102634.14;;;2.41;48.83
55687;BME280;41911;52.362;4.978;2023-03-03T01:15:54;102635.67;;;2.26;48.75
55687;BME280;41911;52.362;4.978;2023-03-03T01:16:26;102634.02;;;2.24;48.64
55687;BME280;41911;52.362;4.978;2023-03-03T01:16:57;102633.06;;;2.34;48.54
55687;BME280;41911;52.362;4.978;2023-03-03T01:17:28;102632.88;;;2.39;48.75
55687;BME280;41911;52.362;4.978;2023-03-03T01:17:59;102633.16;;;2.11;48.70
55687;BME280;41911;52.362;4.978;2023-03-03T01:18:31;102634.83;;;2.15;48.83
55687;BME280;41911;52.362;4.978;2023-03-03T01:19:02;102632.65;;;2.09;48.75
55687;BME280;41911;52.362;4.978;2023-03-03T01:19:34;102633.62;;;2.46;48.58
55687;BME280;41911;52.362;4.978;2023-03-03T01:20:06;102633.91;;;2.21;48.68
55687;BME280;41911;52.362;4.978;2023-03-03T01:20:40;102634.12;;;2.11;48.78
55687;BME280;41911;52.362;4.978;2023-03-03T01:21:11;102635.74;;;2.45;48.59
55687;BME280;41911;52.362;4.978;2023-03-03T01:21:43;102635.24;;;2.26;48.57
55687;BME280;41911;52.362;4.978;2023-03-03T01:22:14;102636.59;;;1.90;48.67
55687;BME280;41911;52.362;4.978;2023-03-03T01:22:45;102639.15;;;2.45;48.72
55687;BME280;41911;52.362;4.978;2023-03-03T01:23:16;102636.10;;;2.17;48.74
55687;BME280;41911;52.362;4.978;2023-03-03T01:23:47;102637.91;;;2.22;48.58
55687;BME280;41911;52.362;4.978;2023-03-03T01:24:21;102636.91;;;2.26;48.59
55687;BME280;41911;52.362;4.978;2023-03-03T01:24:52;102636.84;;;2.25;48.62
55687;BME280;41911;52.362;4.978;2023-03-03T01:25:24;102639.69;;;1.92;48.71
55687;BME280;41911;52.362;4.978;2023-03-03T01:25:54;102639.34;;;2.86;48.38
55687;BME280;41911;52.362;4.978;2023-03-03T01:26:26;102639.75;;;2.79;48.46
55687;BME280;41911;52.362;4.978;2023-03-03T01:26:57;102638.45;;;2.48;48.56
55687;BME280;41911;52.362;4.978;2023-03-03T01:27:28;102639.96;;;2.50;48.60
55687;BME280;41911;52.362;4.978;2023-03-03T01:27:59;102640.31;;;2.23;48.66
55687;BME280;41911;52.362;4.978;2023-03-03T01:28:31;102640.23;;;2.25;48.71
55687;BME280;41911;52.362;4.978;2023-03-03T01:29:02;102640.94;;;2.57;48.81
55687;BME280;41911;52.362;4.978;2023-03-03T01:29:33;102642.14;;;2.56;48.78
55687;BME280;41911;52.362;4.978;2023-03-03T01:30:06;102640.10;;;2.55;48.88
55687;BME280;41911;52.362;4.978;2023-03-03T01:30:38;102640.93;;;2.65;48.81
55687;BME280;41911;52.362;4.978;2023-03-03T01:31:10;102642.37;;;2.44;48.85
55687;BME280;41911;52.362;4.978;2023-03-03T01:31:41;102641.26;;;2.54;48.83
55687;BME280;41911;52.362;4.978;2023-03-03T01:32:12;102641.89;;;2.90;48.60
55687;BME280;41911;52.362;4.978;2023-03-03T01:32:43;102641.61;;;2.76;48.71
55687;BME280;41911;52.362;4.978;2023-03-03T01:33:14;102641.17;;;3.01;48.66
55687;BME280;41911;52.362;4.978;2023-03-03T01:33:45;102642.61;;;2.84;48.61
55687;BME280;41911;52.362;4.978;2023-03-03T01:34:19;102639.67;;;2.90;48.70
55687;BME280;41911;52.362;4.978;2023-03-03T01:34:50;102636.86;;;3.28;48.74
55687;BME280;41911;52.362;4.978;2023-03-03T01:35:21;102640.17;;;3.11;48.76
55687;BME280;41911;52.362;4.978;2023-03-03T01:35:52;102639.52;;;3.31;48.72
55687;BME280;41911;52.362;4.978;2023-03-03T01:36:24;102638.37;;;2.98;48.75
55687;BME280;41911;52.362;4.978;2023-03-03T01:36:55;102639.65;;;3.42;48.98
55687;BME280;41911;52.362;4.978;2023-03-03T01:37:27;102637.45;;;3.35;48.92
55687;BME280;41911;52.362;4.978;2023-03-03T01:37:58;102638.74;;;2.85;48.88
55687;BME280;41911;52.362;4.978;2023-03-03T01:38:31;102636.04;;;3.63;48.95
55687;BME280;41911;52.362;4.978;2023-03-03T01:39:05;102638.49;;;3.06;49.14
55687;BME280;41911;52.362;4.978;2023-03-03T01:39:36;102638.70;;;3.61;48.87
55687;BME280;41911;52.362;4.978;2023-03-03T01:40:15;102638.09;;;3.23;48.87
55687;BME280;41911;52.362;4.978;2023-03-03T01:40:53;102638.93;;;3.24;49.24
55687;BME280;41911;52.362;4.978;2023-03-03T01:41:26;102640.25;;;3.61;49.64
55687;BME280;41911;52.362;4.978;2023-03-03T01:41:57;102641.47;;;3.01;49.69
55687;BME280;41911;52.362;4.978;2023-03-03T01:42:28;102637.23;;;3.51;49.80
55687;BME280;41911;52.362;4.978;2023-03-03T01:43:00;102640.52;;;3.10;50.35
55687;BME280;41911;52.362;4.978;2023-03-03T01:43:32;102639.65;;;3.30;50.07
55687;BME280;41911;52.362;4.978;2023-03-03T01:44:03;102641.47;;;3.55;50.08
55687;BME280;41911;52.362;4.978;2023-03-03T01:44:34;102639.85;;;3.17;49.98
55687;BME280;41911;52.362;4.978;2023-03-03T01:45:14;102641.48;;;3.42;50.02
55687;BME280;41911;52.362;4.978;2023-03-03T01:46:39;102641.89;;;3.53;49.97
55687;BME280;41911;52.362;4.978;2023-03-03T01:47:16;102638.07;;;3.27;50.61
55687;BME280;41911;52.362;4.978;2023-03-03T01:48:29;102639.56;;;3.54;50.23
55687;BME280;41911;52.362;4.978;2023-03-03T01:49:05;102640.42;;;3.04;50.48
55687;BME280;41911;52.362;4.978;2023-03-03T01:49:41;102640.20;;;3.04;50.52
55687;BME280;41911;52.362;4.978;2023-03-03T01:50:24;102640.43;;;3.14;50.43
55687;BME280;41911;52.362;4.978;2023-03-03T01:51:00;102638.98;;;3.19;50.30
55687;BME280;41911;52.362;4.978;2023-03-03T01:51:35;102639.91;;;3.08;50.61
55687;BME280;41911;52.362;4.978;2023-03-03T01:52:13;102638.51;;;2.83;51.37
55687;BME280;41911;52.362;4.978;2023-03-03T01:52:47;102640.81;;;3.15;51.01
55687;BME280;41911;52.362;4.978;2023-03-03T01:53:22;102640.62;;;2.61;51.36
55687;BME280;41911;52.362;4.978;2023-03-03T01:54:01;102642.74;;;2.89;50.93
55687;BME280;41911;52.362;4.978;2023-03-03T01:54:37;102642.56;;;3.21;51.00
55687;BME280;41911;52.362;4.978;2023-03-03T01:55:13;102641.07;;;3.15;50.96
55687;BME280;41911;52.362;4.978;2023-03-03T01:55:46;102639.71;;;3.06;50.72
55687;BME280;41911;52.362;4.978;2023-03-03T01:56:18;102639.63;;;3.15;50.81
55687;BME280;41911;52.362;4.978;2023-03-03T01:56:51;102637.12;;;3.24;50.55
55687;BME280;41911;52.362;4.978;2023-03-03T01:57:27;102638.85;;;3.22;50.45
55687;BME280;41911;52.362;4.978;2023-03-03T01:58:05;102635.99;;;3.23;50.40
55687;BME280;41911;52.362;4.978;2023-03-03T01:58:41;102636.27;;;3.27;50.48
55687;BME280;41911;52.362;4.978;2023-03-03T01:59:15;102636.38;;;3.30;50.44
55687;BME280;41911;52.362;4.978;2023-03-03T01:59:49;102635.15;;;3.27;50.41
55687;BME280;41911;52.362;4.978;2023-03-03T02:00:21;102634.45;;;3.59;50.16
55687;BME280;41911;52.362;4.978;2023-03-03T02:00:55;102634.27;;;3.08;50.06
55687;BME280;41911;52.362;4.978;2023-03-03T02:01:30;102637.28;;;3.46;50.28
55687;BME280;41911;52.362;4.978;2023-03-03T02:02:03;102635.03;;;3.20;50.63
55687;BME280;41911;52.362;4.978;2023-03-03T02:02:34;102633.99;;;3.12;50.74
55687;BME280;41911;52.362;4.978;2023-03-03T02:03:06;102634.79;;;3.13;50.66
55687;BME280;41911;52.362;4.978;2023-03-03T02:03:37;102636.46;;;2.97;50.92
55687;BME280;41911;52.362;4.978;2023-03-03T02:04:09;102637.32;;;3.14;50.75
55687;BME280;41911;52.362;4.978;2023-03-03T02:04:40;102639.11;;;3.06;51.00
55687;BME280;41911;52.362;4.978;2023-03-03T02:05:11;102637.65;;;3.26;50.71
55687;BME280;41911;52.362;4.978;2023-03-03T02:05:43;102638.39;;;3.20;50.69
55687;BME280;41911;52.362;4.978;2023-03-03T02:06:23;102637.70;;;3.19;50.83
55687;BME280;41911;52.362;4.978;2023-03-03T02:06:57;102638.59;;;3.28;50.61
55687;BME280;41911;52.362;4.978;2023-03-03T02:07:31;102637.31;;;3.29;50.61
55687;BME280;41911;52.362;4.978;2023-03-03T02:08:02;102638.43;;;3.35;50.57
55687;BME280;41911;52.362;4.978;2023-03-03T02:08:40;102636.33;;;3.29;50.62
55687;BME280;41911;52.362;4.978;2023-03-03T02:09:19;102635.03;;;3.31;50.57
55687;BME280;41911;52.362;4.978;2023-03-03T02:09:56;102635.67;;;3.36;50.48
55687;BME280;41911;52.362;4.978;2023-03-03T02:10:29;102634.13;;;3.32;50.52
55687;BME280;41911;52.362;4.978;2023-03-03T02:11:02;102631.98;;;3.41;50.46
55687;BME280;41911;52.362;4.978;2023-03-03T02:11:37;102629.41;;;3.48;50.24
55687;BME280;41911;52.362;4.978;2023-03-03T02:12:13;102634.58;;;3.64;50.18
55687;BME280;41911;52.362;4.978;2023-03-03T02:12:48;102632.22;;;3.55;50.18
55687;BME280;41911;52.362;4.978;2023-03-03T02:13:19;102628.14;;;3.59;50.08
55687;BME280;41911;52.362;4.978;2023-03-03T02:13:50;102633.18;;;3.35;49.97
55687;BME280;41911;52.362;4.978;2023-03-03T02:14:24;102631.51;;;3.35;50.25
55687;BME280;41911;52.362;4.978;2023-03-03T02:14:55;102630.55;;;3.62;50.30
55687;BME280;41911;52.362;4.978;2023-03-03T02:15:33;102635.55;;;2.78;51.05
55687;BME280;41911;52.362;4.978;2023-03-03T02:16:05;102632.52;;;2.79;51.09
55687;BME280;41911;52.362;4.978;2023-03-03T02:16:36;102633.82;;;3.22;50.92
55687;BME280;41911;52.362;4.978;2023-03-03T02:17:07;102634.99;;;2.97;50.93
55687;BME280;41911;52.362;4.978;2023-03-03T02:17:45;102632.78;;;3.05;50.75
55687;BME280;41911;52.362;4.978;2023-03-03T02:18:18;102631.20;;;3.34;50.74
55687;BME280;41911;52.362;4.978;2023-03-03T02:18:50;102626.26;;;3.25;50.49
55687;BME280;41911;52.362;4.978;2023-03-03T02:19:29;102629.40;;;3.21;50.50
55687;BME280;41911;52.362;4.978;2023-03-03T02:20:13;102626.38;;;3.23;50.41
55687;BME280;41911;52.362;4.978;2023-03-03T02:20:53;102628.92;;;3.44;50.43
55687;BME280;41911;52.362;4.978;2023-03-03T02:21:27;102628.14;;;3.12;50.53
55687;BME280;41911;52.362;4.978;2023-03-03T02:21:59;102633.45;;;3.04;50.76
55687;BME280;41911;52.362;4.978;2023-03-03T02:22:36;102629.12;;;3.06;50.66
55687;BME280;41911;52.362;4.978;2023-03-03T02:23:14;102630.16;;;3.05;50.60
55687;BME280;41911;52.362;4.978;2023-03-03T02:23:52;102628.04;;;3.58;50.43
55687;BME280;41911;52.362;4.978;2023-03-03T02:24:27;102629.51;;;3.04;50.67
55687;BME280;41911;52.362;4.978;2023-03-03T02:25:01;102629.12;;;3.00;50.72
55687;BME280;41911;52.362;4.978;2023-03-03T02:25:39;102629.09;;;3.04;50.72
55687;BME280;41911;52.362;4.978;2023-03-03T02:26:15;102626.58;;;3.46;50.43
55687;BME280;41911;52.362;4.978;2023-03-03T02:26:47;102627.30;;;3.43;50.53
55687;BME280;41911;52.362;4.978;2023-03-03T02:27:19;102625.21;;;3.08;50.55
55687;BME280;41911;52.362;4.978;2023-03-03T02:27:50;102627.51;;;3.24;50.41
55687;BME280;41911;52.362;4.978;2023-03-03T02:28:21;102628.99;;;2.93;50.79
55687;BME280;41911;52.362;4.978;2023-03-03T02:28:53;102627.31;;;3.22;50.37
55687;BME280;41911;52.362;4.978;2023-03-03T02:29:24;102627.88;;;3.31;50.34
55687;BME280;41911;52.362;4.978;2023-03-03T02:29:55;102628.38;;;3.42;50.02
55687;BME280;41911;52.362;4.978;2023-03-03T02:30:26;102627.62;;;3.27;50.25
55687;BME280;41911;52.362;4.978;2023-03-03T02:30:58;102629.54;;;3.10;50.42
55687;BME280;41911;52.362;4.978;2023-03-03T02:31:31;102631.23;;;3.25;50.61
55687;BME280;41911;52.362;4.978;2023-03-03T02:32:02;102630.04;;;2.97;50.63
55687;BME280;41911;52.362;4.978;2023-03-03T02:32:33;102632.05;;;2.99;50.58
55687;BME280;41911;52.362;4.978;2023-03-03T02:33:05;102630.03;;;2.85;50.71
55687;BME280;41911;52.362;4.978;2023-03-03T02:33:36;102632.38;;;2.91;50.56
55687;BME280;41911;52.362;4.978;2023-03-03T02:34:07;102634.01;;;2.83;50.71
55687;BME280;41911;52.362;4.978;2023-03-03T02:34:48;102633.41;;;3.25;50.51
55687;BME280;41911;52.362;4.978;2023-03-03T02:35:30;102632.86;;;3.34;50.60
55687;BME280;41911;52.362;4.978;2023-03-03T02:36:02;102626.23;;;3.13;50.25
55687;BME280;41911;52.362;4.978;2023-03-03T02:36:35;102633.42;;;2.97;50.41
55687;BME280;41911;52.362;4.978;2023-03-03T02:37:06;102632.08;;;2.94;50.46
55687;BME280;41911;52.362;4.978;2023-03-03T02:37:37;102632.18;;;3.42;50.52
55687;BME280;41911;52.362;4.978;2023-03-03T02:38:14;102629.90;;;3.00;50.44
55687;BME280;41911;52.362;4.978;2023-03-03T02:38:50;102630.76;;;2.95;50.51
55687;BME280;41911;52.362;4.978;2023-03-03T02:39:25;102631.24;;;3.02;50.47
55687;BME280;41911;52.362;4.978;2023-03-03T02:39:56;102632.46;;;2.89;50.73
55687;BME280;41911;52.362;4.978;2023-03-03T02:40:30;102629.71;;;3.14;50.48
55687;BME280;41911;52.362;4.978;2023-03-03T02:41:08;102633.21;;;3.00;50.50
55687;BME280;41911;52.362;4.978;2023-03-03T02:41:44;102628.87;;;3.08;50.45
55687;BME280;41911;52.362;4.978;2023-03-03T02:42:20;102630.18;;;2.94;50.43
55687;BME280;41911;52.362;4.978;2023-03-03T02:42:55;102630.67;;;2.85;50.63
55687;BME280;41911;52.362;4.978;2023-03-03T02:43:32;102631.04;;;2.77;50.71
55687;BME280;41911;52.362;4.978;2023-03-03T02:44:08;102630.36;;;2.81;50.79
55687;BME280;41911;52.362;4.978;2023-03-03T02:44:40;102629.49;;;3.17;50.54
55687;BME280;41911;52.362;4.978;2023-03-03T02:45:11;102631.25;;;2.75;50.65
55687;BME280;41911;52.362;4.978;2023-03-03T02:45:43;102635.22;;;2.70;50.76
55687;BME280;41911;52.362;4.978;2023-03-03T02:46:14;102633.20;;;2.80;50.74
55687;BME280;41911;52.362;4.978;2023-03-03T02:46:46;102632.05;;;3.09;50.69
55687;BME280;41911;52.362;4.978;2023-03-03T02:47:18;102635.74;;;2.65;50.85
55687;BME280;41911;52.362;4.978;2023-03-03T02:47:49;102636.34;;;2.82;50.56
55687;BME280;41911;52.362;4.978;2023-03-03T02:48:20;102633.33;;;2.84;50.88
55687;BME280;41911;52.362;4.978;2023-03-03T02:48:51;102635.56;;;2.83;50.58
55687;BME280;41911;52.362;4.978;2023-03-03T02:49:24;102633.57;;;3.14;50.54
55687;BME280;41911;52.362;4.978;2023-03-03T02:49:56;102637.04;;;2.92;50.38
55687;BME280;41911;52.362;4.978;2023-03-03T02:50:27;102633.79;;;2.77;50.59
55687;BME280;41911;52.362;4.978;2023-03-03T02:50:58;102632.75;;;2.98;50.40
55687;BME280;41911;52.362;4.978;2023-03-03T02:51:29;102629.63;;;2.96;50.28
55687;BME280;41911;52.362;4.978;2023-03-03T02:52:01;102629.41;;;3.27;50.32
55687;BME280;41911;52.362;4.978;2023-03-03T02:52:33;102630.19;;;2.81;50.42
55687;BME280;41911;52.362;4.978;2023-03-03T02:53:04;102628.63;;;2.92;50.28
55687;BME280;41911;52.362;4.978;2023-03-03T02:53:35;102627.76;;;2.97;50.27
55687;BME280;41911;52.362;4.978;2023-03-03T02:54:08;102625.29;;;2.98;50.23
55687;BME280;41911;52.362;4.978;2023-03-03T02:54:39;102624.54;;;3.39;50.16
55687;BME280;41911;52.362;4.978;2023-03-03T02:55:10;102626.28;;;3.07;50.13
55687;BME280;41911;52.362;4.978;2023-03-03T02:55:41;102625.14;;;3.11;49.93
55687;BME280;41911;52.362;4.978;2023-03-03T02:56:12;102628.58;;;2.59;50.78
55687;BME280;41911;52.362;4.978;2023-03-03T02:56:44;102628.26;;;2.50;51.03
55687;BME280;41911;52.362;4.978;2023-03-03T02:57:15;102627.48;;;2.87;50.69
55687;BME280;41911;52.362;4.978;2023-03-03T02:57:46;102630.08;;;3.42;50.47
55687;BME280;41911;52.362;4.978;2023-03-03T02:58:17;102627.27;;;2.81;50.42
55687;BME280;41911;52.362;4.978;2023-03-03T02:58:48;102627.79;;;3.17;50.44
55687;BME280;41911;52.362;4.978;2023-03-03T02:59:19;102622.88;;;3.10;50.23
55687;BME280;41911;52.362;4.978;2023-03-03T02:59:50;102626.72;;;3.33;50.28
55687;BME280;41911;52.362;4.978;2023-03-03T03:00:21;102624.12;;;3.36;50.19
55687;BME280;41911;52.362;4.978;2023-03-03T03:00:52;102625.72;;;3.12;50.12
55687;BME280;41911;52.362;4.978;2023-03-03T03:01:24;102625.24;;;3.30;50.24
55687;BME280;41911;52.362;4.978;2023-03-03T03:01:55;102626.73;;;2.93;50.39